sensor_id;sensor_type;location;lat;lon;timestamp;temperature;humidity
39951;DHT22;25629;51.444;-2.606;2023-06-26T00:01:30;17.50;1.00
39951;DHT22;25629;51.444;-2.606;2023-06-26T00:03:56;17.50;1.00
39951;DHT22;25629;51.444;-2.606;2023-06-26T00:06:22;17.40;1.00
39951;DHT22;25629;51.444;-2.606;2023-06-26T00:08:50;17.40;1.00
39951;DHT22;25629;51.444;-2.606;2023-06-26T00:11:15;17.40;1.00
39951;DHT22;25629;51.444;-2.606;2023-06-26T00:13:41;17.40;1.00
39951;DHT22;25629;51.444;-2.606;2023-06-26T00:16:07;17.40;1.00
39951;DHT22;25629;51.444;-2.606;2023-06-26T00:18:32;17.40;1.00
39951;DHT22;25629;51.444;-2.606;2023-06-26T00:20:58;17.40;99.90
39951;DHT22;25629;51.444;-2.606;2023-06-26T00:23:23;17.30;99.90
39951;DHT22;25629;51.444;-2.606;2023-06-26T00:25:49;17.30;99.90
39951;DHT22;25629;51.444;-2.606;2023-06-26T00:28:14;17.30;99.90
39951;DHT22;25629;51.444;-2.606;2023-06-26T00:30:40;17.30;99.90
39951;DHT22;25629;51.444;-2.606;2023-06-26T00:33:06;17.30;99.90
39951;DHT22;25629;51.444;-2.606;2023-06-26T00:35:31;17.30;99.90
39951;DHT22;25629;51.444;-2.606;2023-06-26T00:37:57;17.30;99.90
39951;DHT22;25629;51.444;-2.606;2023-06-26T00:40:22;17.30;99.90
39951;DHT22;25629;51.444;-2.606;2023-06-26T00:42:48;17.30;99.90
39951;DHT22;25629;51.444;-2.606;2023-06-26T00:45:13;17.30;99.90
39951;DHT22;25629;51.444;-2.606;2023-06-26T00:47:39;17.20;99.90
39951;DHT22;25629;51.444;-2.606;2023-06-26T00:50:05;17.20;92.30
39951;DHT22;25629;51.444;-2.606;2023-06-26T00:52:31;17.20;92.70
39951;DHT22;25629;51.444;-2.606;2023-06-26T00:54:57;17.20;98.60
39951;DHT22;25629;51.444;-2.606;2023-06-26T00:57:23;17.20;98.50
39951;DHT22;25629;51.444;-2.606;2023-06-26T00:59:49;17.20;99.90
39951;DHT22;25629;51.444;-2.606;2023-06-26T01:02:15;17.20;99.90
39951;DHT22;25629;51.444;-2.606;2023-06-26T01:04:48;17.20;99.90
39951;DHT22;25629;51.444;-2.606;2023-06-26T01:07:14;17.10;99.90
39951;DHT22;25629;51.444;-2.606;2023-06-26T01:09:40;17.10;99.90
39951;DHT22;25629;51.444;-2.606;2023-06-26T01:12:06;17.10;99.90
39951;DHT22;25629;51.444;-2.606;2023-06-26T01:14:33;17.10;99.90
39951;DHT22;25629;51.444;-2.606;2023-06-26T01:16:59;17.10;99.90
39951;DHT22;25629;51.444;-2.606;2023-06-26T01:19:27;17.10;99.90
39951;DHT22;25629;51.444;-2.606;2023-06-26T01:22:10;17.10;99.90
39951;DHT22;25629;51.444;-2.606;2023-06-26T01:24:41;17.10;99.90
39951;DHT22;25629;51.444;-2.606;2023-06-26T01:27:07;17.10;99.90
39951;DHT22;25629;51.444;-2.606;2023-06-26T01:29:33;17.00;99.90
39951;DHT22;25629;51.444;-2.606;2023-06-26T01:31:59;17.00;99.90
39951;DHT22;25629;51.444;-2.606;2023-06-26T01:34:24;17.00;99.90
39951;DHT22;25629;51.444;-2.606;2023-06-26T01:36:51;17.00;99.90
39951;DHT22;25629;51.444;-2.606;2023-06-26T01:39:18;17.00;99.90
39951;DHT22;25629;51.444;-2.606;2023-06-26T01:41:43;17.00;99.90
39951;DHT22;25629;51.444;-2.606;2023-06-26T01:44:16;17.00;99.90
39951;DHT22;25629;51.444;-2.606;2023-06-26T01:46:47;17.00;99.90
39951;DHT22;25629;51.444;-2.606;2023-06-26T01:51:51;17.00;99.90
39951;DHT22;25629;51.444;-2.606;2023-06-26T01:54:21;17.00;99.90
39951;DHT22;25629;51.444;-2.606;2023-06-26T01:56:49;17.00;99.90
39951;DHT22;25629;51.444;-2.606;2023-06-26T01:59:18;17.00;99.90
39951;DHT22;25629;51.444;-2.606;2023-06-26T02:01:44;17.00;99.90
39951;DHT22;25629;51.444;-2.606;2023-06-26T02:04:09;17.00;99.90
39951;DHT22;25629;51.444;-2.606;2023-06-26T02:06:35;16.90;99.90
39951;DHT22;25629;51.444;-2.606;2023-06-26T02:09:01;16.90;99.90
39951;DHT22;25629;51.444;-2.606;2023-06-26T02:11:26;16.90;99.90
39951;DHT22;25629;51.444;-2.606;2023-06-26T02:13:52;16.90;99.90
39951;DHT22;25629;51.444;-2.606;2023-06-26T02:16:17;16.90;99.90
39951;DHT22;25629;51.444;-2.606;2023-06-26T02:18:43;16.90;99.90
39951;DHT22;25629;51.444;-2.606;2023-06-26T02:21:09;16.90;99.90
39951;DHT22;25629;51.444;-2.606;2023-06-26T02:23:34;16.90;99.90
39951;DHT22;25629;51.444;-2.606;2023-06-26T02:26:00;16.90;99.90
39951;DHT22;25629;51.444;-2.606;2023-06-26T02:28:26;16.90;99.90
39951;DHT22;25629;51.444;-2.606;2023-06-26T02:30:51;16.90;99.90
39951;DHT22;25629;51.444;-2.606;2023-06-26T02:33:17;16.90;99.90
39951;DHT22;25629;51.444;-2.606;2023-06-26T02:35:42;16.90;99.90
39951;DHT22;25629;51.444;-2.606;2023-06-26T02:38:08;16.90;99.90
39951;DHT22;25629;51.444;-2.606;2023-06-26T02:40:34;16.90;99.90
39951;DHT22;25629;51.444;-2.606;2023-06-26T02:42:59;16.90;99.90
39951;DHT22;25629;51.444;-2.606;2023-06-26T02:45:25;17.00;1.00
39951;DHT22;25629;51.444;-2.606;2023-06-26T02:47:50;17.00;1.00
39951;DHT22;25629;51.444;-2.606;2023-06-26T02:50:16;17.00;1.00
39951;DHT22;25629;51.444;-2.606;2023-06-26T02:52:41;17.00;1.00
39951;DHT22;25629;51.444;-2.606;2023-06-26T02:55:07;17.00;1.00
39951;DHT22;25629;51.444;-2.606;2023-06-26T02:57:32;16.90;9.20
39951;DHT22;25629;51.444;-2.606;2023-06-26T02:59:58;16.90;83.00
39951;DHT22;25629;51.444;-2.606;2023-06-26T03:02:23;16.90;99.90
39951;DHT22;25629;51.444;-2.606;2023-06-26T03:04:49;16.80;99.90
39951;DHT22;25629;51.444;-2.606;2023-06-26T03:07:15;16.80;99.90
39951;DHT22;25629;51.444;-2.606;2023-06-26T03:09:41;16.80;99.90
39951;DHT22;25629;51.444;-2.606;2023-06-26T03:12:06;16.80;99.90
39951;DHT22;25629;51.444;-2.606;2023-06-26T03:14:32;16.80;99.90
39951;DHT22;25629;51.444;-2.606;2023-06-26T03:16:58;16.70;99.90
39951;DHT22;25629;51.444;-2.606;2023-06-26T03:19:24;16.70;99.90
39951;DHT22;25629;51.444;-2.606;2023-06-26T03:21:50;16.70;99.90
39951;DHT22;25629;51.444;-2.606;2023-06-26T03:24:15;16.70;1.00
39951;DHT22;25629;51.444;-2.606;2023-06-26T03:26:41;16.60;1.00
39951;DHT22;25629;51.444;-2.606;2023-06-26T03:29:06;16.60;99.90
39951;DHT22;25629;51.444;-2.606;2023-06-26T03:31:32;16.60;99.90
39951;DHT22;25629;51.444;-2.606;2023-06-26T03:33:58;16.60;99.90
39951;DHT22;25629;51.444;-2.606;2023-06-26T03:36:23;16.60;99.90
39951;DHT22;25629;51.444;-2.606;2023-06-26T03:38:49;16.60;99.90
39951;DHT22;25629;51.444;-2.606;2023-06-26T03:41:14;16.60;99.90
39951;DHT22;25629;51.444;-2.606;2023-06-26T03:43:40;16.60;99.90
39951;DHT22;25629;51.444;-2.606;2023-06-26T03:46:05;16.60;99.90
39951;DHT22;25629;51.444;-2.606;2023-06-26T03:48:31;16.60;99.90
39951;DHT22;25629;51.444;-2.606;2023-06-26T03:50:57;16.60;99.90
39951;DHT22;25629;51.444;-2.606;2023-06-26T03:53:22;16.60;99.90
39951;DHT22;25629;51.444;-2.606;2023-06-26T03:55:49;16.60;99.90
39951;DHT22;25629;51.444;-2.606;2023-06-26T03:58:14;16.50;99.90
39951;DHT22;25629;51.444;-2.606;2023-06-26T04:00:40;16.50;99.90
39951;DHT22;25629;51.444;-2.606;2023-06-26T04:03:06;16.50;99.90
39951;DHT22;25629;51.444;-2.606;2023-06-26T04:05:31;16.50;99.90
39951;DHT22;25629;51.444;-2.606;2023-06-26T04:07:57;16.50;99.90
39951;DHT22;25629;51.444;-2.606;2023-06-26T04:10:22;16.50;99.90
39951;DHT22;25629;51.444;-2.606;2023-06-26T04:12:48;16.50;99.90
39951;DHT22;25629;51.444;-2.606;2023-06-26T04:15:14;16.50;99.90
39951;DHT22;25629;51.444;-2.606;2023-06-26T04:17:39;16.50;99.90
39951;DHT22;25629;51.444;-2.606;2023-06-26T04:20:05;16.50;99.90
39951;DHT22;25629;51.444;-2.606;2023-06-26T04:22:34;16.50;1.00
39951;DHT22;25629;51.444;-2.606;2023-06-26T04:25:03;16.50;1.00
39951;DHT22;25629;51.444;-2.606;2023-06-26T04:27:28;16.40;1.00
39951;DHT22;25629;51.444;-2.606;2023-06-26T04:29:54;16.40;26.80
39951;DHT22;25629;51.444;-2.606;2023-06-26T04:32:19;16.50;2.10
39951;DHT22;25629;51.444;-2.606;2023-06-26T04:34:45;16.50;11.30
39951;DHT22;25629;51.444;-2.606;2023-06-26T04:37:11;16.50;8.20
39951;DHT22;25629;51.444;-2.606;2023-06-26T04:39:37;16.40;19.20
39951;DHT22;25629;51.444;-2.606;2023-06-26T04:42:03;16.50;11.50
39951;DHT22;25629;51.444;-2.606;2023-06-26T04:44:28;16.40;1.00
39951;DHT22;25629;51.444;-2.606;2023-06-26T04:46:54;16.50;1.00
39951;DHT22;25629;51.444;-2.606;2023-06-26T04:49:19;16.50;1.00
39951;DHT22;25629;51.444;-2.606;2023-06-26T04:51:45;16.50;99.90
39951;DHT22;25629;51.444;-2.606;2023-06-26T04:54:11;16.60;99.90
39951;DHT22;25629;51.444;-2.606;2023-06-26T04:56:37;16.50;99.90
39951;DHT22;25629;51.444;-2.606;2023-06-26T04:59:05;16.60;99.90
39951;DHT22;25629;51.444;-2.606;2023-06-26T05:01:30;16.60;97.40
39951;DHT22;25629;51.444;-2.606;2023-06-26T05:03:57;16.60;57.80
39951;DHT22;25629;51.444;-2.606;2023-06-26T05:06:23;16.70;1.00
39951;DHT22;25629;51.444;-2.606;2023-06-26T05:08:49;16.80;1.00
39951;DHT22;25629;51.444;-2.606;2023-06-26T05:11:14;16.80;1.00
39951;DHT22;25629;51.444;-2.606;2023-06-26T05:13:40;16.80;99.90
39951;DHT22;25629;51.444;-2.606;2023-06-26T05:16:06;16.80;99.90
39951;DHT22;25629;51.444;-2.606;2023-06-26T05:18:34;16.90;99.90
39951;DHT22;25629;51.444;-2.606;2023-06-26T05:21:00;17.00;99.90
39951;DHT22;25629;51.444;-2.606;2023-06-26T05:23:25;17.10;99.90
39951;DHT22;25629;51.444;-2.606;2023-06-26T05:25:52;17.10;99.90
39951;DHT22;25629;51.444;-2.606;2023-06-26T05:28:18;17.10;99.90
39951;DHT22;25629;51.444;-2.606;2023-06-26T05:30:43;17.20;99.90
39951;DHT22;25629;51.444;-2.606;2023-06-26T05:33:10;17.20;99.90
39951;DHT22;25629;51.444;-2.606;2023-06-26T05:35:36;17.30;99.90
39951;DHT22;25629;51.444;-2.606;2023-06-26T05:38:02;17.40;99.90
39951;DHT22;25629;51.444;-2.606;2023-06-26T05:40:28;17.50;99.90
39951;DHT22;25629;51.444;-2.606;2023-06-26T05:42:53;17.50;99.90
39951;DHT22;25629;51.444;-2.606;2023-06-26T05:45:19;17.50;99.90
39951;DHT22;25629;51.444;-2.606;2023-06-26T05:47:44;17.50;99.90
39951;DHT22;25629;51.444;-2.606;2023-06-26T05:50:11;17.60;99.90
39951;DHT22;25629;51.444;-2.606;2023-06-26T05:52:37;17.60;99.90
39951;DHT22;25629;51.444;-2.606;2023-06-26T05:55:04;17.60;99.90
39951;DHT22;25629;51.444;-2.606;2023-06-26T05:57:30;17.60;99.90
39951;DHT22;25629;51.444;-2.606;2023-06-26T05:59:55;17.70;99.90
39951;DHT22;25629;51.444;-2.606;2023-06-26T06:02:21;17.70;99.90
39951;DHT22;25629;51.444;-2.606;2023-06-26T06:04:47;17.80;99.90
39951;DHT22;25629;51.444;-2.606;2023-06-26T06:07:13;17.80;99.90
39951;DHT22;25629;51.444;-2.606;2023-06-26T06:09:38;17.70;99.90
39951;DHT22;25629;51.444;-2.606;2023-06-26T06:12:04;17.80;99.90
39951;DHT22;25629;51.444;-2.606;2023-06-26T06:14:31;17.80;99.90
39951;DHT22;25629;51.444;-2.606;2023-06-26T06:16:57;17.90;99.90
39951;DHT22;25629;51.444;-2.606;2023-06-26T06:19:22;17.90;99.90
39951;DHT22;25629;51.444;-2.606;2023-06-26T06:21:48;17.90;99.90
39951;DHT22;25629;51.444;-2.606;2023-06-26T06:24:13;17.90;99.90
39951;DHT22;25629;51.444;-2.606;2023-06-26T06:26:39;18.00;99.90
39951;DHT22;25629;51.444;-2.606;2023-06-26T06:29:05;18.00;99.90
39951;DHT22;25629;51.444;-2.606;2023-06-26T06:31:31;18.20;99.90
39951;DHT22;25629;51.444;-2.606;2023-06-26T06:33:57;18.50;99.90
39951;DHT22;25629;51.444;-2.606;2023-06-26T06:36:22;18.50;99.90
39951;DHT22;25629;51.444;-2.606;2023-06-26T06:38:48;18.50;99.90
39951;DHT22;25629;51.444;-2.606;2023-06-26T06:41:13;18.60;99.90
39951;DHT22;25629;51.444;-2.606;2023-06-26T06:43:39;18.60;99.90
39951;DHT22;25629;51.444;-2.606;2023-06-26T06:46:05;18.50;99.90
39951;DHT22;25629;51.444;-2.606;2023-06-26T06:48:31;18.40;99.90
39951;DHT22;25629;51.444;-2.606;2023-06-26T06:50:56;18.40;99.90
39951;DHT22;25629;51.444;-2.606;2023-06-26T06:53:22;18.40;99.90
39951;DHT22;25629;51.444;-2.606;2023-06-26T06:55:48;18.50;99.90
39951;DHT22;25629;51.444;-2.606;2023-06-26T06:58:14;18.50;99.90
39951;DHT22;25629;51.444;-2.606;2023-06-26T07:00:42;18.40;99.90
39951;DHT22;25629;51.444;-2.606;2023-06-26T07:03:07;18.40;99.90
39951;DHT22;25629;51.444;-2.606;2023-06-26T07:05:33;18.40;99.90
39951;DHT22;25629;51.444;-2.606;2023-06-26T07:07:58;18.30;99.90
39951;DHT22;25629;51.444;-2.606;2023-06-26T07:10:24;18.40;99.90
39951;DHT22;25629;51.444;-2.606;2023-06-26T07:12:49;18.50;99.90
39951;DHT22;25629;51.444;-2.606;2023-06-26T07:15:16;18.50;99.90
39951;DHT22;25629;51.444;-2.606;2023-06-26T07:17:42;18.40;99.90
39951;DHT22;25629;51.444;-2.606;2023-06-26T07:20:07;18.50;99.90
39951;DHT22;25629;51.444;-2.606;2023-06-26T07:22:34;18.60;99.90
39951;DHT22;25629;51.444;-2.606;2023-06-26T07:24:59;18.80;99.90
39951;DHT22;25629;51.444;-2.606;2023-06-26T07:27:25;18.90;99.90
39951;DHT22;25629;51.444;-2.606;2023-06-26T07:29:51;18.90;99.90
39951;DHT22;25629;51.444;-2.606;2023-06-26T07:32:16;19.00;99.90
39951;DHT22;25629;51.444;-2.606;2023-06-26T07:34:42;19.00;99.90
39951;DHT22;25629;51.444;-2.606;2023-06-26T07:37:07;19.20;99.90
39951;DHT22;25629;51.444;-2.606;2023-06-26T07:39:33;19.40;99.90
39951;DHT22;25629;51.444;-2.606;2023-06-26T07:41:58;19.60;99.90
39951;DHT22;25629;51.444;-2.606;2023-06-26T07:44:27;19.70;99.90
39951;DHT22;25629;51.444;-2.606;2023-06-26T07:46:53;19.60;99.90
39951;DHT22;25629;51.444;-2.606;2023-06-26T07:49:18;19.60;99.90
39951;DHT22;25629;51.444;-2.606;2023-06-26T07:51:44;19.70;99.90
39951;DHT22;25629;51.444;-2.606;2023-06-26T07:54:09;19.90;99.90
39951;DHT22;25629;51.444;-2.606;2023-06-26T07:56:35;20.00;99.90
39951;DHT22;25629;51.444;-2.606;2023-06-26T07:59:16;20.20;99.90
39951;DHT22;25629;51.444;-2.606;2023-06-26T08:01:42;20.30;99.90
39951;DHT22;25629;51.444;-2.606;2023-06-26T08:04:08;20.20;99.90
39951;DHT22;25629;51.444;-2.606;2023-06-26T08:06:36;20.20;99.90
39951;DHT22;25629;51.444;-2.606;2023-06-26T08:09:06;20.20;99.90
39951;DHT22;25629;51.444;-2.606;2023-06-26T08:11:33;20.40;99.90
39951;DHT22;25629;51.444;-2.606;2023-06-26T08:13:58;20.40;99.90
39951;DHT22;25629;51.444;-2.606;2023-06-26T08:16:24;20.20;99.90
39951;DHT22;25629;51.444;-2.606;2023-06-26T08:18:50;20.00;99.90
39951;DHT22;25629;51.444;-2.606;2023-06-26T08:21:16;20.00;99.90
39951;DHT22;25629;51.444;-2.606;2023-06-26T08:23:41;20.00;99.90
39951;DHT22;25629;51.444;-2.606;2023-06-26T08:26:07;20.10;99.90
39951;DHT22;25629;51.444;-2.606;2023-06-26T08:28:32;20.00;99.90
39951;DHT22;25629;51.444;-2.606;2023-06-26T08:30:58;20.00;99.90
39951;DHT22;25629;51.444;-2.606;2023-06-26T08:33:24;20.10;99.90
39951;DHT22;25629;51.444;-2.606;2023-06-26T08:35:50;20.20;99.90
39951;DHT22;25629;51.444;-2.606;2023-06-26T08:38:16;20.30;99.90
39951;DHT22;25629;51.444;-2.606;2023-06-26T08:40:41;20.20;99.90
39951;DHT22;25629;51.444;-2.606;2023-06-26T08:43:07;20.10;99.90
39951;DHT22;25629;51.444;-2.606;2023-06-26T08:45:32;20.10;99.90
39951;DHT22;25629;51.444;-2.606;2023-06-26T08:47:59;20.10;99.90
39951;DHT22;25629;51.444;-2.606;2023-06-26T08:50:25;20.20;99.90
39951;DHT22;25629;51.444;-2.606;2023-06-26T08:52:53;20.50;99.90
39951;DHT22;25629;51.444;-2.606;2023-06-26T08:55:22;20.60;99.90
39951;DHT22;25629;51.444;-2.606;2023-06-26T08:57:50;20.50;99.90
39951;DHT22;25629;51.444;-2.606;2023-06-26T09:00:16;20.60;99.90
39951;DHT22;25629;51.444;-2.606;2023-06-26T09:02:42;20.60;99.90
39951;DHT22;25629;51.444;-2.606;2023-06-26T09:05:08;20.50;99.90
39951;DHT22;25629;51.444;-2.606;2023-06-26T09:07:34;20.50;99.90
39951;DHT22;25629;51.444;-2.606;2023-06-26T09:10:00;20.50;99.90
39951;DHT22;25629;51.444;-2.606;2023-06-26T09:12:28;20.50;99.90
39951;DHT22;25629;51.444;-2.606;2023-06-26T09:14:56;20.50;99.90
39951;DHT22;25629;51.444;-2.606;2023-06-26T09:17:25;20.50;99.90
39951;DHT22;25629;51.444;-2.606;2023-06-26T09:19:54;20.40;99.90
39951;DHT22;25629;51.444;-2.606;2023-06-26T09:22:19;20.20;99.90
39951;DHT22;25629;51.444;-2.606;2023-06-26T09:24:45;20.20;99.90
39951;DHT22;25629;51.444;-2.606;2023-06-26T09:27:11;20.20;99.90
39951;DHT22;25629;51.444;-2.606;2023-06-26T09:29:36;20.30;99.90
39951;DHT22;25629;51.444;-2.606;2023-06-26T09:32:02;20.30;99.90
39951;DHT22;25629;51.444;-2.606;2023-06-26T09:34:32;20.20;99.90
39951;DHT22;25629;51.444;-2.606;2023-06-26T09:36:58;20.20;99.90
39951;DHT22;25629;51.444;-2.606;2023-06-26T09:39:24;20.30;99.90
39951;DHT22;25629;51.444;-2.606;2023-06-26T09:41:50;20.30;99.90
39951;DHT22;25629;51.444;-2.606;2023-06-26T09:44:15;20.50;99.90
39951;DHT22;25629;51.444;-2.606;2023-06-26T09:46:42;20.70;99.90
39951;DHT22;25629;51.444;-2.606;2023-06-26T09:49:10;20.60;99.90
39951;DHT22;25629;51.444;-2.606;2023-06-26T09:51:37;20.50;99.90
39951;DHT22;25629;51.444;-2.606;2023-06-26T09:54:03;20.50;99.90
39951;DHT22;25629;51.444;-2.606;2023-06-26T09:56:29;20.70;99.90
39951;DHT22;25629;51.444;-2.606;2023-06-26T09:58:56;20.80;99.90
39951;DHT22;25629;51.444;-2.606;2023-06-26T10:01:23;20.90;99.90
39951;DHT22;25629;51.444;-2.606;2023-06-26T10:03:48;21.10;99.90
39951;DHT22;25629;51.444;-2.606;2023-06-26T10:06:14;21.20;99.90
39951;DHT22;25629;51.444;-2.606;2023-06-26T10:08:40;21.20;99.90
39951;DHT22;25629;51.444;-2.606;2023-06-26T10:11:07;21.30;99.90
39951;DHT22;25629;51.444;-2.606;2023-06-26T10:13:36;21.30;99.90
39951;DHT22;25629;51.444;-2.606;2023-06-26T10:16:04;21.30;99.90
39951;DHT22;25629;51.444;-2.606;2023-06-26T10:18:31;21.20;99.90
39951;DHT22;25629;51.444;-2.606;2023-06-26T10:20:57;21.10;99.90
39951;DHT22;25629;51.444;-2.606;2023-06-26T10:23:23;21.30;99.90
39951;DHT22;25629;51.444;-2.606;2023-06-26T10:25:51;21.40;99.90
39951;DHT22;25629;51.444;-2.606;2023-06-26T10:28:17;21.70;99.90
39951;DHT22;25629;51.444;-2.606;2023-06-26T10:30:43;22.00;99.90
39951;DHT22;25629;51.444;-2.606;2023-06-26T10:33:09;22.20;99.90
39951;DHT22;25629;51.444;-2.606;2023-06-26T10:35:41;22.30;99.90
39951;DHT22;25629;51.444;-2.606;2023-06-26T10:38:07;22.40;99.90
39951;DHT22;25629;51.444;-2.606;2023-06-26T10:40:44;22.50;99.90
39951;DHT22;25629;51.444;-2.606;2023-06-26T10:43:14;22.50;99.90
39951;DHT22;25629;51.444;-2.606;2023-06-26T10:45:43;22.60;99.90
39951;DHT22;25629;51.444;-2.606;2023-06-26T10:48:09;22.60;99.90
39951;DHT22;25629;51.444;-2.606;2023-06-26T10:50:35;22.60;99.90
39951;DHT22;25629;51.444;-2.606;2023-06-26T10:58:31;22.40;99.90
39951;DHT22;25629;51.444;-2.606;2023-06-26T11:01:19;22.50;99.90
39951;DHT22;25629;51.444;-2.606;2023-06-26T11:03:44;22.20;99.90
39951;DHT22;25629;51.444;-2.606;2023-06-26T11:06:11;22.30;99.90
39951;DHT22;25629;51.444;-2.606;2023-06-26T11:08:55;22.40;99.90
39951;DHT22;25629;51.444;-2.606;2023-06-26T11:14:08;22.50;99.90
39951;DHT22;25629;51.444;-2.606;2023-06-26T11:16:34;22.50;99.90
39951;DHT22;25629;51.444;-2.606;2023-06-26T11:18:59;22.50;99.90
39951;DHT22;25629;51.444;-2.606;2023-06-26T11:21:26;22.60;99.90
39951;DHT22;25629;51.444;-2.606;2023-06-26T11:23:51;22.80;99.90
39951;DHT22;25629;51.444;-2.606;2023-06-26T11:26:20;23.20;99.90
39951;DHT22;25629;51.444;-2.606;2023-06-26T11:28:53;23.50;99.90
39951;DHT22;25629;51.444;-2.606;2023-06-26T11:31:29;23.90;99.90
39951;DHT22;25629;51.444;-2.606;2023-06-26T11:33:55;24.10;99.90
39951;DHT22;25629;51.444;-2.606;2023-06-26T11:36:25;24.10;99.90
39951;DHT22;25629;51.444;-2.606;2023-06-26T11:38:55;23.90;99.90
39951;DHT22;25629;51.444;-2.606;2023-06-26T11:41:21;23.80;99.90
39951;DHT22;25629;51.444;-2.606;2023-06-26T11:43:47;23.90;99.90
39951;DHT22;25629;51.444;-2.606;2023-06-26T11:46:12;24.00;99.90
39951;DHT22;25629;51.444;-2.606;2023-06-26T11:48:38;23.90;99.90
39951;DHT22;25629;51.444;-2.606;2023-06-26T11:51:05;24.10;99.90
39951;DHT22;25629;51.444;-2.606;2023-06-26T11:53:30;24.00;99.90
39951;DHT22;25629;51.444;-2.606;2023-06-26T11:55:56;23.80;99.90
39951;DHT22;25629;51.444;-2.606;2023-06-26T11:58:22;23.50;99.90
39951;DHT22;25629;51.444;-2.606;2023-06-26T12:00:48;23.30;99.90
39951;DHT22;25629;51.444;-2.606;2023-06-26T12:03:14;23.20;99.90
39951;DHT22;25629;51.444;-2.606;2023-06-26T12:05:39;23.10;99.90
39951;DHT22;25629;51.444;-2.606;2023-06-26T12:08:06;23.10;99.90
39951;DHT22;25629;51.444;-2.606;2023-06-26T12:10:32;22.90;99.90
39951;DHT22;25629;51.444;-2.606;2023-06-26T12:12:58;22.80;99.90
39951;DHT22;25629;51.444;-2.606;2023-06-26T12:15:26;23.00;99.90
39951;DHT22;25629;51.444;-2.606;2023-06-26T12:17:53;23.10;99.90
39951;DHT22;25629;51.444;-2.606;2023-06-26T12:20:19;23.00;99.90
39951;DHT22;25629;51.444;-2.606;2023-06-26T12:22:46;23.00;99.90
39951;DHT22;25629;51.444;-2.606;2023-06-26T12:25:13;23.20;99.90
39951;DHT22;25629;51.444;-2.606;2023-06-26T12:27:38;23.30;99.90
39951;DHT22;25629;51.444;-2.606;2023-06-26T12:30:04;23.60;99.90
39951;DHT22;25629;51.444;-2.606;2023-06-26T12:32:30;23.80;99.90
39951;DHT22;25629;51.444;-2.606;2023-06-26T12:34:56;23.80;99.90
39951;DHT22;25629;51.444;-2.606;2023-06-26T12:37:22;23.50;99.90
39951;DHT22;25629;51.444;-2.606;2023-06-26T12:39:55;23.80;99.90
39951;DHT22;25629;51.444;-2.606;2023-06-26T12:44:47;23.90;99.90
39951;DHT22;25629;51.444;-2.606;2023-06-26T12:47:13;24.20;99.90
39951;DHT22;25629;51.444;-2.606;2023-06-26T12:49:40;24.20;99.90
39951;DHT22;25629;51.444;-2.606;2023-06-26T12:52:07;24.10;99.90
39951;DHT22;25629;51.444;-2.606;2023-06-26T12:54:33;23.70;99.90
39951;DHT22;25629;51.444;-2.606;2023-06-26T12:56:59;23.20;99.90
39951;DHT22;25629;51.444;-2.606;2023-06-26T12:59:25;22.90;99.90
39951;DHT22;25629;51.444;-2.606;2023-06-26T13:01:50;22.90;99.90
39951;DHT22;25629;51.444;-2.606;2023-06-26T13:04:16;23.10;99.90
39951;DHT22;25629;51.444;-2.606;2023-06-26T13:06:42;23.40;99.90
39951;DHT22;25629;51.444;-2.606;2023-06-26T13:09:07;23.20;99.90
39951;DHT22;25629;51.444;-2.606;2023-06-26T13:11:33;23.30;99.90
39951;DHT22;25629;51.444;-2.606;2023-06-26T13:14:00;23.40;99.90
39951;DHT22;25629;51.444;-2.606;2023-06-26T13:16:26;23.30;99.90
39951;DHT22;25629;51.444;-2.606;2023-06-26T13:18:51;23.30;99.90
39951;DHT22;25629;51.444;-2.606;2023-06-26T13:21:17;23.40;99.90
39951;DHT22;25629;51.444;-2.606;2023-06-26T13:23:43;23.20;99.90
39951;DHT22;25629;51.444;-2.606;2023-06-26T13:26:09;22.80;99.90
39951;DHT22;25629;51.444;-2.606;2023-06-26T13:28:35;22.80;99.90
39951;DHT22;25629;51.444;-2.606;2023-06-26T13:31:00;22.90;99.90
39951;DHT22;25629;51.444;-2.606;2023-06-26T13:33:26;23.30;99.90
39951;DHT22;25629;51.444;-2.606;2023-06-26T13:35:52;23.80;99.90
39951;DHT22;25629;51.444;-2.606;2023-06-26T13:38:20;23.80;99.90
39951;DHT22;25629;51.444;-2.606;2023-06-26T13:40:55;23.90;99.90
39951;DHT22;25629;51.444;-2.606;2023-06-26T13:43:23;23.60;99.90
39951;DHT22;25629;51.444;-2.606;2023-06-26T13:45:48;23.60;99.90
39951;DHT22;25629;51.444;-2.606;2023-06-26T13:48:14;23.50;99.90
39951;DHT22;25629;51.444;-2.606;2023-06-26T13:50:40;23.50;99.90
39951;DHT22;25629;51.444;-2.606;2023-06-26T13:53:05;23.60;99.90
39951;DHT22;25629;51.444;-2.606;2023-06-26T13:55:31;24.10;99.90
39951;DHT22;25629;51.444;-2.606;2023-06-26T13:57:58;24.20;99.90
39951;DHT22;25629;51.444;-2.606;2023-06-26T14:00:24;24.10;99.90
39951;DHT22;25629;51.444;-2.606;2023-06-26T14:02:49;24.10;99.90
39951;DHT22;25629;51.444;-2.606;2023-06-26T14:05:15;24.10;99.90
39951;DHT22;25629;51.444;-2.606;2023-06-26T14:07:40;24.30;99.90
39951;DHT22;25629;51.444;-2.606;2023-06-26T14:10:08;24.60;99.90
39951;DHT22;25629;51.444;-2.606;2023-06-26T14:12:34;24.80;99.90
39951;DHT22;25629;51.444;-2.606;2023-06-26T14:15:00;24.70;99.90
39951;DHT22;25629;51.444;-2.606;2023-06-26T14:17:26;24.70;99.90
39951;DHT22;25629;51.444;-2.606;2023-06-26T14:19:52;24.60;99.90
39951;DHT22;25629;51.444;-2.606;2023-06-26T14:22:17;24.70;99.90
39951;DHT22;25629;51.444;-2.606;2023-06-26T14:24:43;24.40;99.90
39951;DHT22;25629;51.444;-2.606;2023-06-26T14:27:09;24.20;99.90
39951;DHT22;25629;51.444;-2.606;2023-06-26T14:29:35;24.10;99.90
39951;DHT22;25629;51.444;-2.606;2023-06-26T14:32:01;24.00;99.90
39951;DHT22;25629;51.444;-2.606;2023-06-26T14:34:26;24.20;99.90
39951;DHT22;25629;51.444;-2.606;2023-06-26T14:36:52;24.10;99.90
39951;DHT22;25629;51.444;-2.606;2023-06-26T14:39:17;24.00;99.90
39951;DHT22;25629;51.444;-2.606;2023-06-26T14:41:43;24.40;99.90
39951;DHT22;25629;51.444;-2.606;2023-06-26T14:44:09;25.00;99.90
39951;DHT22;25629;51.444;-2.606;2023-06-26T14:46:36;24.90;99.90
39951;DHT22;25629;51.444;-2.606;2023-06-26T14:49:02;25.10;99.90
39951;DHT22;25629;51.444;-2.606;2023-06-26T14:51:28;25.60;99.90
39951;DHT22;25629;51.444;-2.606;2023-06-26T14:53:53;25.90;99.90
39951;DHT22;25629;51.444;-2.606;2023-06-26T14:56:19;26.10;99.90
39951;DHT22;25629;51.444;-2.606;2023-06-26T14:58:45;25.40;99.90
39951;DHT22;25629;51.444;-2.606;2023-06-26T15:01:12;24.90;99.90
39951;DHT22;25629;51.444;-2.606;2023-06-26T15:03:40;25.10;99.90
39951;DHT22;25629;51.444;-2.606;2023-06-26T15:06:06;25.30;99.90
39951;DHT22;25629;51.444;-2.606;2023-06-26T15:08:32;25.40;99.90
39951;DHT22;25629;51.444;-2.606;2023-06-26T15:10:58;25.40;99.90
39951;DHT22;25629;51.444;-2.606;2023-06-26T15:13:23;25.70;99.90
39951;DHT22;25629;51.444;-2.606;2023-06-26T15:15:49;25.40;99.90
39951;DHT22;25629;51.444;-2.606;2023-06-26T15:18:15;25.40;99.90
39951;DHT22;25629;51.444;-2.606;2023-06-26T15:20:40;25.30;99.90
39951;DHT22;25629;51.444;-2.606;2023-06-26T15:23:06;24.70;99.90
39951;DHT22;25629;51.444;-2.606;2023-06-26T15:25:31;24.80;99.90